createdAt,value
2023-07-29T00:01:12.159Z,1.95
2023-07-29T00:03:14.514Z,3.80
2023-07-29T00:05:17.038Z,1.65
2023-07-29T00:07:19.200Z,4.72
2023-07-29T00:09:21.751Z,3.30
2023-07-29T00:11:24.234Z,4.00
2023-07-29T00:13:26.743Z,2.22
2023-07-29T00:15:29.697Z,4.45
2023-07-29T00:17:32.667Z,3.70
2023-07-29T00:19:35.117Z,2.13
2023-07-29T00:21:38.616Z,3.65
2023-07-29T00:23:40.880Z,3.65
2023-07-29T00:25:43.319Z,9.00
2023-07-29T00:27:45.584Z,3.33
2023-07-29T00:29:48.318Z,5.53
2023-07-29T00:31:50.522Z,2.60
2023-07-29T00:33:54.005Z,5.63
2023-07-29T00:35:56.237Z,6.30
2023-07-29T00:37:58.688Z,5.07
2023-07-29T00:40:00.904Z,4.32
2023-07-29T00:42:03.400Z,2.65
2023-07-29T00:44:05.720Z,5.93
2023-07-29T00:46:09.923Z,3.95
2023-07-29T00:48:12.375Z,4.75
2023-07-29T00:50:16.708Z,6.47
2023-07-29T00:52:18.880Z,8.10
2023-07-29T00:54:21.347Z,5.88
2023-07-29T00:56:23.737Z,3.78
2023-07-29T00:58:26.185Z,4.57
2023-07-29T01:00:28.809Z,4.18
2023-07-29T01:02:34.064Z,6.35
2023-07-29T01:04:36.481Z,5.03
2023-07-29T01:07:04.791Z,2.53
2023-07-29T01:09:18.362Z,4.97
2023-07-29T01:11:45.140Z,4.20
2023-07-29T01:13:55.802Z,3.25
2023-07-29T01:16:09.597Z,4.60
2023-07-29T01:18:25.100Z,5.25
2023-07-29T01:20:28.534Z,3.72
2023-07-29T01:22:32.278Z,5.82
2023-07-29T01:24:34.750Z,3.30
2023-07-29T01:26:37.147Z,3.08
2023-07-29T01:28:40.265Z,2.55
2023-07-29T01:30:45.906Z,3.38
2023-07-29T01:32:56.174Z,6.07
2023-07-29T01:37:16.668Z,2.58
2023-07-29T01:39:21.813Z,7.53
2023-07-29T01:41:25.234Z,6.65
2023-07-29T01:43:27.505Z,4.75
2023-07-29T01:45:33.031Z,6.45
2023-07-29T01:47:35.332Z,6.63
2023-07-29T01:49:37.713Z,4.32
2023-07-29T01:51:39.918Z,3.78
2023-07-29T01:53:42.296Z,5.18
2023-07-29T01:55:46.283Z,4.18
2023-07-29T01:57:48.813Z,3.92
2023-07-29T01:59:51.924Z,8.20
2023-07-29T02:01:54.319Z,3.30
2023-07-29T02:03:56.953Z,7.97
2023-07-29T02:05:59.629Z,3.72
2023-07-29T02:08:01.853Z,4.25
2023-07-29T02:10:04.569Z,9.55
2023-07-29T02:12:08.613Z,3.30
2023-07-29T02:14:11.385Z,2.67
2023-07-29T02:16:13.485Z,6.20
2023-07-29T02:18:15.944Z,5.10
2023-07-29T02:20:18.042Z,2.60
2023-07-29T02:22:20.458Z,3.75
2023-07-29T02:24:22.744Z,2.95
2023-07-29T02:26:25.182Z,4.88
2023-07-29T02:28:27.400Z,5.53
2023-07-29T02:30:29.837Z,4.85
2023-07-29T02:32:32.075Z,3.60
2023-07-29T02:34:34.670Z,2.92
2023-07-29T02:36:37.112Z,5.20
2023-07-29T02:38:40.190Z,7.82
2023-07-29T02:40:42.414Z,4.45
2023-07-29T02:42:44.822Z,4.13
2023-07-29T02:44:46.924Z,6.82
2023-07-29T02:46:49.671Z,6.35
2023-07-29T02:48:52.003Z,4.93
2023-07-29T02:50:54.511Z,8.32
2023-07-29T02:52:56.620Z,3.78
2023-07-29T02:54:59.040Z,4.45
2023-07-29T02:57:02.004Z,10.25
2023-07-29T02:59:04.442Z,10.13
2023-07-29T03:01:07.644Z,8.75
2023-07-29T03:03:10.697Z,6.95
2023-07-29T03:05:13.005Z,7.32
2023-07-29T03:07:15.890Z,5.85
2023-07-29T03:09:18.134Z,8.73
2023-07-29T03:11:20.830Z,7.60
2023-07-29T03:13:23.000Z,8.32
2023-07-29T03:15:26.286Z,7.15
2023-07-29T03:17:28.812Z,8.68
2023-07-29T03:19:31.550Z,6.53
2023-07-29T03:21:34.031Z,10.82
2023-07-29T03:23:36.853Z,6.95
2023-07-29T03:25:39.014Z,5.90
2023-07-29T03:27:41.689Z,12.93
2023-07-29T03:29:43.962Z,5.15
2023-07-29T03:31:46.462Z,4.88
2023-07-29T03:33:48.998Z,6.28
2023-07-29T03:35:51.632Z,5.13
2023-07-29T03:37:53.937Z,4.07
2023-07-29T03:39:56.495Z,9.02
2023-07-29T03:41:59.349Z,4.18
2023-07-29T03:44:01.873Z,3.60
2023-07-29T03:46:04.213Z,4.25
2023-07-29T03:48:07.225Z,4.30
2023-07-29T03:50:09.849Z,7.15
2023-07-29T03:52:12.257Z,6.18
2023-07-29T03:54:14.357Z,5.65
2023-07-29T03:56:16.936Z,4.15
2023-07-29T03:58:19.190Z,3.05
2023-07-29T04:00:21.664Z,4.95
2023-07-29T04:02:23.796Z,5.93
2023-07-29T04:04:26.382Z,3.20
2023-07-29T04:06:28.946Z,5.25
2023-07-29T04:08:31.453Z,4.47
2023-07-29T04:10:33.801Z,6.95
2023-07-29T04:12:36.291Z,5.57
2023-07-29T04:14:38.442Z,4.88
2023-07-29T04:16:41.069Z,6.55
2023-07-29T04:18:43.631Z,8.32
2023-07-29T04:20:46.072Z,3.70
2023-07-29T04:22:48.217Z,3.97
2023-07-29T04:24:50.609Z,7.05
2023-07-29T04:26:52.720Z,5.93
2023-07-29T04:28:55.189Z,5.57
2023-07-29T04:30:57.389Z,5.15
2023-07-29T04:33:00.013Z,5.50
2023-07-29T04:35:02.363Z,7.75
2023-07-29T04:37:04.958Z,6.35
2023-07-29T04:39:07.222Z,12.07
2023-07-29T04:41:10.213Z,10.38
2023-07-29T04:43:12.558Z,10.95
2023-07-29T04:45:15.114Z,12.68
2023-07-29T04:47:17.342Z,10.88
2023-07-29T04:49:19.905Z,10.35
2023-07-29T04:51:22.307Z,14.25
2023-07-29T04:53:24.794Z,13.10
2023-07-29T04:55:27.595Z,13.02
2023-07-29T04:57:30.514Z,17.73
2023-07-29T04:59:32.723Z,15.48
2023-07-29T05:01:35.410Z,14.82
2023-07-29T05:03:38.266Z,14.27
2023-07-29T05:05:40.660Z,13.43
2023-07-29T05:07:42.791Z,13.65
2023-07-29T05:09:45.288Z,18.50
2023-07-29T05:11:48.367Z,9.38
2023-07-29T05:13:50.742Z,12.98
2023-07-29T05:15:53.152Z,16.42
2023-07-29T05:17:55.586Z,14.10
2023-07-29T05:19:57.751Z,13.00
2023-07-29T05:22:00.226Z,13.90
2023-07-29T05:24:02.344Z,13.23
2023-07-29T05:26:04.829Z,11.05
2023-07-29T05:28:07.167Z,15.10
2023-07-29T05:30:09.934Z,13.63
2023-07-29T05:32:12.027Z,14.15
2023-07-29T05:34:14.436Z,12.90
2023-07-29T05:36:16.863Z,13.27
2023-07-29T05:38:19.279Z,15.80
2023-07-29T05:40:21.790Z,14.77
2023-07-29T05:42:24.152Z,11.80
2023-07-29T05:44:26.285Z,12.63
2023-07-29T05:46:28.806Z,14.30
2023-07-29T05:48:31.175Z,12.90
2023-07-29T05:50:33.659Z,11.40
2023-07-29T05:52:35.915Z,12.70
2023-07-29T05:54:38.491Z,12.57
2023-07-29T05:56:40.784Z,13.88
2023-07-29T05:58:43.374Z,12.80
2023-07-29T06:00:45.542Z,15.13
2023-07-29T06:02:48.082Z,14.50
2023-07-29T06:04:50.449Z,8.63
2023-07-29T06:06:53.108Z,14.43
2023-07-29T06:08:55.234Z,10.35
2023-07-29T06:10:57.808Z,13.95
2023-07-29T06:13:00.026Z,13.57
2023-07-29T06:15:02.471Z,12.90
2023-07-29T06:17:04.906Z,12.00
2023-07-29T06:19:09.815Z,14.55
2023-07-29T06:21:17.817Z,10.48
2023-07-29T06:23:20.209Z,12.98
2023-07-29T06:25:23.756Z,12.18
2023-07-29T06:27:26.673Z,16.00
2023-07-29T06:29:28.878Z,12.40
2023-07-29T06:31:31.639Z,15.50
2023-07-29T06:33:33.852Z,11.15
2023-07-29T06:35:36.314Z,13.55
2023-07-29T06:37:38.508Z,11.15
2023-07-29T06:39:40.907Z,12.10
2023-07-29T06:41:43.114Z,12.30
2023-07-29T06:43:45.505Z,11.07
2023-07-29T06:45:47.725Z,10.63
2023-07-29T06:47:50.138Z,12.13
2023-07-29T06:49:52.261Z,10.98
2023-07-29T06:51:54.751Z,12.32
2023-07-29T06:53:57.002Z,12.45
2023-07-29T06:56:00.216Z,14.93
2023-07-29T06:58:02.491Z,16.00
2023-07-29T07:00:05.434Z,12.35
2023-07-29T07:02:08.250Z,11.63
2023-07-29T07:04:10.759Z,12.27
2023-07-29T07:06:12.893Z,10.80
2023-07-29T07:08:15.277Z,8.82
2023-07-29T07:10:17.523Z,11.27
2023-07-29T07:12:19.979Z,12.43
2023-07-29T07:14:22.152Z,11.63
2023-07-29T07:16:24.600Z,11.43
2023-07-29T07:18:27.302Z,11.20
2023-07-29T07:20:30.410Z,12.13
2023-07-29T07:22:32.684Z,10.23
2023-07-29T07:24:35.099Z,9.57
2023-07-29T07:26:37.454Z,11.15
2023-07-29T07:28:40.116Z,11.38
2023-07-29T07:30:42.786Z,9.55
2023-07-29T07:32:46.648Z,9.68
2023-07-29T07:34:48.872Z,9.57
2023-07-29T07:36:51.407Z,8.60
2023-07-29T07:38:53.590Z,8.20
2023-07-29T07:40:57.845Z,7.03
2023-07-29T07:43:00.168Z,8.82
2023-07-29T07:45:02.731Z,7.60
2023-07-29T07:47:05.345Z,8.90
2023-07-29T07:49:07.860Z,8.82
2023-07-29T07:51:13.741Z,7.65
2023-07-29T07:53:16.280Z,7.60
2023-07-29T07:55:18.380Z,7.70
2023-07-29T07:57:22.702Z,6.45
2023-07-29T07:59:24.897Z,7.55
2023-07-29T08:01:27.552Z,8.98
2023-07-29T08:03:29.768Z,6.10
2023-07-29T08:05:33.267Z,7.40
2023-07-29T08:07:35.457Z,7.60
2023-07-29T08:09:37.878Z,8.15
2023-07-29T08:11:40.056Z,6.15
2023-07-29T08:13:42.537Z,7.43
2023-07-29T08:15:48.533Z,8.55
2023-07-29T08:17:51.176Z,7.90
2023-07-29T08:19:53.461Z,6.70
2023-07-29T08:21:55.988Z,5.88
2023-07-29T08:23:58.164Z,6.43
2023-07-29T08:26:04.082Z,7.55
2023-07-29T08:28:06.511Z,6.28
2023-07-29T08:30:10.037Z,9.27
2023-07-29T08:32:12.275Z,6.22
2023-07-29T08:34:14.675Z,8.05
2023-07-29T08:36:17.148Z,7.47
2023-07-29T08:38:19.824Z,7.82
2023-07-29T08:40:29.544Z,7.53
2023-07-29T08:42:34.890Z,6.10
2023-07-29T08:44:42.748Z,6.05
2023-07-29T08:46:45.664Z,6.57
2023-07-29T08:48:48.442Z,5.78
2023-07-29T08:50:53.582Z,6.97
2023-07-29T08:52:57.156Z,6.68
2023-07-29T08:55:00.536Z,8.95
2023-07-29T08:57:02.911Z,9.38
2023-07-29T08:59:06.289Z,8.70
2023-07-29T09:01:08.876Z,10.00
2023-07-29T09:03:11.555Z,8.18
2023-07-29T09:05:14.053Z,8.52
2023-07-29T09:07:17.066Z,5.93
2023-07-29T09:09:19.208Z,5.18
2023-07-29T09:11:22.326Z,5.20
2023-07-29T09:13:24.698Z,5.93
2023-07-29T09:15:31.620Z,6.32
2023-07-29T09:17:37.150Z,6.85
2023-07-29T09:19:40.017Z,5.30
2023-07-29T09:21:43.332Z,5.22
2023-07-29T09:23:46.330Z,4.25
2023-07-29T09:25:49.133Z,5.18
2023-07-29T09:27:51.290Z,13.15
2023-07-29T09:29:54.360Z,3.60
2023-07-29T09:32:21.092Z,5.38
2023-07-29T09:34:23.476Z,4.95
2023-07-29T09:36:25.842Z,2.70
2023-07-29T09:38:29.456Z,8.18
2023-07-29T09:40:38.972Z,3.90
2023-07-29T09:42:41.422Z,2.92
2023-07-29T09:44:43.580Z,6.80
2023-07-29T09:46:47.740Z,2.85
2023-07-29T09:48:51.490Z,3.08
2023-07-29T09:50:53.975Z,2.53
2023-07-29T09:52:59.564Z,2.80
2023-07-29T09:55:02.260Z,4.20
2023-07-29T09:57:04.997Z,3.35
2023-07-29T09:59:07.722Z,2.92
2023-07-29T10:01:10.183Z,2.80
2023-07-29T10:03:14.050Z,3.03
2023-07-29T10:05:16.762Z,2.88
2023-07-29T10:07:20.289Z,2.85
2023-07-29T10:09:23.039Z,3.13
2023-07-29T10:11:26.383Z,3.88
2023-07-29T10:13:29.219Z,3.13
2023-07-29T10:15:33.415Z,3.28
2023-07-29T10:17:37.678Z,2.53
2023-07-29T10:19:40.930Z,2.45
2023-07-29T10:21:49.580Z,4.25
2023-07-29T10:23:58.603Z,2.55
2023-07-29T10:26:11.126Z,3.65
2023-07-29T10:28:16.645Z,3.03
2023-07-29T10:30:19.261Z,2.47
2023-07-29T10:32:28.420Z,2.75
2023-07-29T10:34:36.958Z,2.85
2023-07-29T10:36:39.605Z,2.28
2023-07-29T10:38:42.637Z,2.60
2023-07-29T10:41:01.747Z,2.40
2023-07-29T10:43:19.502Z,2.30
2023-07-29T10:45:23.380Z,2.92
2023-07-29T10:47:28.373Z,2.03
2023-07-29T10:49:32.570Z,2.33
2023-07-29T10:51:38.798Z,2.90
2023-07-29T10:53:41.331Z,2.72
2023-07-29T10:55:45.362Z,1.75
2023-07-29T10:57:48.582Z,1.63
2023-07-29T10:59:57.710Z,2.92
2023-07-29T11:02:00.840Z,1.80
2023-07-29T11:04:28.364Z,2.22
2023-07-29T11:06:30.604Z,2.10
2023-07-29T11:08:35.063Z,2.15
2023-07-29T11:10:45.101Z,2.78
2023-07-29T11:12:48.461Z,2.40
2023-07-29T11:14:50.785Z,2.03
2023-07-29T11:16:54.759Z,2.72
2023-07-29T11:19:01.267Z,2.53
2023-07-29T11:21:05.097Z,2.53
2023-07-29T11:23:07.537Z,4.50
2023-07-29T11:25:12.289Z,2.90
2023-07-29T11:27:14.433Z,2.92
2023-07-29T11:29:17.738Z,2.67
2023-07-29T11:31:21.322Z,2.20
2023-07-29T11:33:29.461Z,1.95
2023-07-29T11:35:33.742Z,1.60
2023-07-29T11:37:36.928Z,3.33
2023-07-29T11:39:42.742Z,1.60
2023-07-29T11:41:45.171Z,2.67
2023-07-29T11:43:47.277Z,1.40
2023-07-29T11:45:52.502Z,1.10
2023-07-29T11:47:55.034Z,1.30
2023-07-29T11:50:01.611Z,1.55
2023-07-29T11:52:11.683Z,1.10
2023-07-29T11:54:14.140Z,1.48
2023-07-29T11:56:16.281Z,2.97
2023-07-29T11:58:18.771Z,1.45
2023-07-29T12:00:22.702Z,1.45
2023-07-29T12:02:27.043Z,1.63
2023-07-29T12:04:30.585Z,1.40
2023-07-29T12:06:33.243Z,1.05
2023-07-29T12:08:35.809Z,1.17
2023-07-29T12:10:39.273Z,1.42
2023-07-29T12:12:49.226Z,2.25
2023-07-29T12:14:51.694Z,1.13
2023-07-29T12:16:54.844Z,2.47
2023-07-29T12:18:57.328Z,1.02
2023-07-29T12:21:00.046Z,1.95
2023-07-29T12:23:04.077Z,1.98
2023-07-29T12:25:07.687Z,2.20
2023-07-29T12:27:14.390Z,1.75
2023-07-29T12:29:17.954Z,0.80
2023-07-29T12:31:20.416Z,2.90
2023-07-29T12:33:37.216Z,1.08
2023-07-29T12:35:39.784Z,2.83
2023-07-29T12:37:45.149Z,1.30
2023-07-29T12:39:51.612Z,1.23
2023-07-29T12:41:55.687Z,1.40
2023-07-29T12:43:58.213Z,2.08
2023-07-29T12:46:00.367Z,3.78
2023-07-29T12:48:02.872Z,1.10
2023-07-29T12:50:05.395Z,2.40
2023-07-29T12:52:07.897Z,3.38
2023-07-29T12:54:10.248Z,1.10
2023-07-29T12:56:12.783Z,1.23
2023-07-29T12:58:14.974Z,1.23
2023-07-29T13:00:17.549Z,1.40
2023-07-29T13:02:19.706Z,2.47
2023-07-29T13:04:22.177Z,1.38
2023-07-29T13:06:24.748Z,1.08
2023-07-29T13:08:27.306Z,0.77
2023-07-29T13:10:29.450Z,1.10
2023-07-29T13:12:31.961Z,1.27
2023-07-29T13:14:34.157Z,0.82
2023-07-29T13:16:36.746Z,2.08
2023-07-29T13:18:39.162Z,1.10
2023-07-29T13:20:41.559Z,1.15
2023-07-29T13:22:43.660Z,3.10
2023-07-29T13:24:46.068Z,2.15
2023-07-29T13:26:48.236Z,2.80
2023-07-29T13:28:50.648Z,1.55
2023-07-29T13:30:52.822Z,2.75
2023-07-29T13:32:55.246Z,0.90
2023-07-29T13:34:57.437Z,2.40
2023-07-29T13:36:59.910Z,1.20
2023-07-29T13:39:02.053Z,1.13
2023-07-29T13:41:04.884Z,2.08
2023-07-29T13:43:07.126Z,1.48
2023-07-29T13:45:10.124Z,1.40
2023-07-29T13:47:12.374Z,1.20
2023-07-29T13:49:16.023Z,2.08
2023-07-29T13:51:18.118Z,1.30
2023-07-29T13:53:20.776Z,1.55
2023-07-29T13:55:22.997Z,1.98
2023-07-29T13:57:25.445Z,1.58
2023-07-29T13:59:27.520Z,1.92
2023-07-29T14:01:30.088Z,1.50
2023-07-29T14:03:32.250Z,1.67
2023-07-29T14:05:34.899Z,1.25
2023-07-29T14:07:37.263Z,1.35
2023-07-29T14:09:39.805Z,1.55
2023-07-29T14:11:41.889Z,1.42
2023-07-29T14:13:44.298Z,1.60
2023-07-29T14:15:46.504Z,1.40
2023-07-29T14:17:49.173Z,1.58
2023-07-29T14:19:51.362Z,3.00
2023-07-29T14:21:53.944Z,1.83
2023-07-29T14:23:56.458Z,3.10
2023-07-29T14:25:58.909Z,2.10
2023-07-29T14:28:01.079Z,2.20
2023-07-29T14:30:04.918Z,1.10
2023-07-29T14:32:07.452Z,1.65
2023-07-29T14:34:10.705Z,2.50
2023-07-29T14:36:12.864Z,1.55
2023-07-29T14:38:15.302Z,1.42
2023-07-29T14:40:18.290Z,2.47
2023-07-29T14:42:20.888Z,1.30
2023-07-29T14:44:23.107Z,5.65
2023-07-29T14:46:25.800Z,1.60
2023-07-29T14:48:28.134Z,2.05
2023-07-29T14:50:30.507Z,1.90
2023-07-29T14:52:32.752Z,1.70
2023-07-29T14:54:35.252Z,3.47
2023-07-29T14:56:37.453Z,1.25
2023-07-29T14:58:40.149Z,1.60
2023-07-29T15:00:42.249Z,1.88
2023-07-29T15:02:44.835Z,1.45
2023-07-29T15:04:47.369Z,1.48
2023-07-29T15:06:49.837Z,1.40
2023-07-29T15:08:52.005Z,2.83
2023-07-29T15:10:55.257Z,4.28
2023-07-29T15:12:57.431Z,2.38
2023-07-29T15:14:59.917Z,1.23
2023-07-29T15:17:02.067Z,1.30
2023-07-29T15:19:07.828Z,1.58
2023-07-29T15:21:10.669Z,1.42
2023-07-29T15:23:13.193Z,2.38
2023-07-29T15:25:15.424Z,3.53
2023-07-29T15:27:18.045Z,2.28
2023-07-29T15:29:20.208Z,1.42
2023-07-29T15:31:22.865Z,1.77
2023-07-29T15:33:25.098Z,3.50
2023-07-29T15:35:27.570Z,2.85
2023-07-29T15:37:29.738Z,2.90
2023-07-29T15:39:32.283Z,2.00
2023-07-29T15:41:35.290Z,1.52
2023-07-29T15:43:37.836Z,1.95
2023-07-29T15:45:40.097Z,4.32
2023-07-29T15:47:42.526Z,1.63
2023-07-29T15:49:44.618Z,3.20
2023-07-29T15:51:47.142Z,2.30
2023-07-29T15:53:49.855Z,1.88
2023-07-29T15:55:52.700Z,2.60
2023-07-29T15:57:54.835Z,3.53
2023-07-29T15:59:57.308Z,1.70
2023-07-29T16:01:59.572Z,5.00
2023-07-29T16:04:02.300Z,1.50
2023-07-29T16:06:04.716Z,2.35
2023-07-29T16:08:07.150Z,1.73
2023-07-29T16:10:10.181Z,1.75
2023-07-29T16:12:12.697Z,2.90
2023-07-29T16:14:15.429Z,1.63
2023-07-29T16:16:18.047Z,3.35
2023-07-29T16:18:20.219Z,1.50
2023-07-29T16:20:22.799Z,1.38
2023-07-29T16:22:25.190Z,3.15
2023-07-29T16:24:27.784Z,2.47
2023-07-29T16:26:30.027Z,1.90
2023-07-29T16:28:32.624Z,2.58
2023-07-29T16:30:34.920Z,2.00
2023-07-29T16:32:37.833Z,1.80
2023-07-29T16:34:40.632Z,2.67
2023-07-29T16:36:43.174Z,1.10
2023-07-29T16:38:45.321Z,1.50
2023-07-29T16:41:06.176Z,3.67
2023-07-29T16:43:10.105Z,2.05
2023-07-29T16:45:12.846Z,1.88
2023-07-29T16:47:15.009Z,3.28
2023-07-29T16:49:22.124Z,1.55
2023-07-29T16:51:24.846Z,1.77
2023-07-29T16:53:27.353Z,2.10
2023-07-29T16:55:29.492Z,7.57
2023-07-29T16:57:32.047Z,2.10
2023-07-29T16:59:34.355Z,2.17
2023-07-29T17:01:36.813Z,3.60
2023-07-29T17:03:39.142Z,2.25
2023-07-29T17:05:41.776Z,2.05
2023-07-29T17:07:43.979Z,1.58
2023-07-29T17:09:46.838Z,1.52
2023-07-29T17:11:48.966Z,2.60
2023-07-29T17:13:51.509Z,1.70
2023-07-29T17:15:53.680Z,7.00
2023-07-29T17:17:57.998Z,3.42
2023-07-29T17:20:00.199Z,3.00
2023-07-29T17:22:02.683Z,1.63
2023-07-29T17:24:05.004Z,3.20
2023-07-29T17:26:09.406Z,2.05
2023-07-29T17:28:11.547Z,1.70
2023-07-29T17:30:14.174Z,4.05
2023-07-29T17:32:16.380Z,2.17
2023-07-29T17:34:19.564Z,3.30
2023-07-29T17:36:21.732Z,1.95
2023-07-29T17:38:24.214Z,4.30
2023-07-29T17:40:26.797Z,3.92
2023-07-29T17:42:29.203Z,2.03
2023-07-29T17:44:31.320Z,2.10
2023-07-29T17:46:35.176Z,2.25
2023-07-29T17:48:37.656Z,2.65
2023-07-29T17:50:41.849Z,4.90
2023-07-29T17:52:43.956Z,4.45
2023-07-29T17:54:46.805Z,4.95
2023-07-29T17:56:49.161Z,2.00
2023-07-29T17:58:52.839Z,2.67
2023-07-29T18:00:57.431Z,3.33
2023-07-29T18:03:00.162Z,4.03
2023-07-29T18:05:03.211Z,3.13
2023-07-29T18:07:05.911Z,3.60
2023-07-29T18:09:08.399Z,4.82
2023-07-29T18:11:11.127Z,4.68
2023-07-29T18:13:13.397Z,6.30
2023-07-29T18:15:15.817Z,3.47
2023-07-29T18:17:17.930Z,4.47
2023-07-29T18:19:22.507Z,5.53
2023-07-29T18:21:24.712Z,4.15
2023-07-29T18:23:27.277Z,5.05
2023-07-29T18:25:29.816Z,3.53
2023-07-29T18:27:32.326Z,3.30
2023-07-29T18:29:34.590Z,4.05
2023-07-29T18:31:37.045Z,4.53
2023-07-29T18:33:39.148Z,3.55
2023-07-29T18:35:43.232Z,5.03
2023-07-29T18:37:47.028Z,3.67
2023-07-29T18:39:49.445Z,4.00
2023-07-29T18:41:51.662Z,8.65
2023-07-29T18:43:59.027Z,5.05
2023-07-29T18:46:01.373Z,3.95
2023-07-29T18:48:04.713Z,6.22
2023-07-29T18:50:07.498Z,3.70
2023-07-29T18:52:10.282Z,5.45
2023-07-29T18:54:12.414Z,6.30
2023-07-29T18:56:14.886Z,4.00
2023-07-29T18:58:17.179Z,5.30
2023-07-29T19:00:19.709Z,4.53
2023-07-29T19:02:22.243Z,4.95
2023-07-29T19:04:24.807Z,3.72
2023-07-29T19:06:27.193Z,5.72
2023-07-29T19:08:29.657Z,3.97
2023-07-29T19:10:31.910Z,3.40
2023-07-29T19:12:35.304Z,5.18
2023-07-29T19:14:37.478Z,7.30
2023-07-29T19:16:40.153Z,6.60
2023-07-29T19:18:42.890Z,3.95
2023-07-29T19:20:53.463Z,3.22
2023-07-29T19:22:55.604Z,6.53
2023-07-29T19:24:58.111Z,12.77
2023-07-29T19:27:02.554Z,5.60
2023-07-29T19:29:05.861Z,5.07
2023-07-29T19:31:14.510Z,4.82
2023-07-29T19:33:17.453Z,3.03
2023-07-29T19:35:19.674Z,3.50
2023-07-29T19:37:24.506Z,6.50
2023-07-29T19:39:26.677Z,4.32
2023-07-29T19:41:29.584Z,5.55
2023-07-29T19:43:32.030Z,3.83
2023-07-29T19:45:34.453Z,5.15
2023-07-29T19:47:36.654Z,5.15
2023-07-29T19:49:39.209Z,6.32
2023-07-29T19:51:41.390Z,7.85
2023-07-29T19:53:43.895Z,3.60
2023-07-29T19:55:53.490Z,4.40
2023-07-29T19:57:55.991Z,4.32
2023-07-29T19:59:58.171Z,3.97
2023-07-29T20:02:00.739Z,6.25
2023-07-29T20:04:02.967Z,4.05
2023-07-29T20:06:06.742Z,3.22
2023-07-29T20:08:09.258Z,4.93
2023-07-29T20:10:11.684Z,6.32
2023-07-29T20:12:13.940Z,2.97
2023-07-29T20:14:16.390Z,2.80
2023-07-29T20:16:18.880Z,1.92
2023-07-29T20:18:24.412Z,6.25
2023-07-29T20:20:26.835Z,2.50
2023-07-29T20:22:29.342Z,3.35
2023-07-29T20:24:31.542Z,2.90
2023-07-29T20:26:35.707Z,5.32
2023-07-29T20:28:38.000Z,3.65
2023-07-29T20:30:40.475Z,3.10
2023-07-29T20:32:42.904Z,4.85
2023-07-29T20:34:45.464Z,4.20
2023-07-29T20:36:47.609Z,5.68
2023-07-29T20:38:50.006Z,2.83
2023-07-29T20:40:57.391Z,4.40
2023-07-29T20:42:59.781Z,4.90
2023-07-29T20:45:06.265Z,3.75
2023-07-29T20:47:09.102Z,2.00
2023-07-29T20:49:11.753Z,4.20
2023-07-29T20:51:19.652Z,3.92
2023-07-29T20:53:21.959Z,3.88
2023-07-29T20:55:24.324Z,2.60
2023-07-29T20:57:26.538Z,1.95
2023-07-29T20:59:29.870Z,2.72
2023-07-29T21:01:32.437Z,4.22
2023-07-29T21:03:35.637Z,7.07
2023-07-29T21:05:37.994Z,3.58
2023-07-29T21:07:41.307Z,2.70
2023-07-29T21:09:43.774Z,2.97
2023-07-29T21:11:46.858Z,3.35
2023-07-29T21:13:51.696Z,2.60
2023-07-29T21:15:55.991Z,2.25
2023-07-29T21:17:58.182Z,3.40
2023-07-29T21:20:02.677Z,5.50
2023-07-29T21:22:05.194Z,3.85
2023-07-29T21:24:07.953Z,4.30
2023-07-29T21:26:10.910Z,2.85
2023-07-29T21:28:13.932Z,3.83
2023-07-29T21:30:16.760Z,3.45
2023-07-29T21:32:19.164Z,4.22
2023-07-29T21:34:21.541Z,2.75
2023-07-29T21:36:24.400Z,8.85
2023-07-29T21:38:30.431Z,3.92
2023-07-29T21:40:33.451Z,3.40
2023-07-29T21:42:37.463Z,3.92
2023-07-29T21:44:39.967Z,3.28
2023-07-29T21:46:42.348Z,3.15
2023-07-29T21:48:45.353Z,5.43
2023-07-29T21:50:49.310Z,3.97
2023-07-29T21:52:54.804Z,4.50
2023-07-29T21:54:58.318Z,14.27
2023-07-29T21:57:00.980Z,2.95
2023-07-29T21:59:03.519Z,4.43
2023-07-29T22:01:06.404Z,4.13
2023-07-29T22:03:08.718Z,4.18
2023-07-29T22:05:12.304Z,5.60
2023-07-29T22:07:15.396Z,3.63
2023-07-29T22:09:19.818Z,4.15
2023-07-29T22:11:22.439Z,5.78
2023-07-29T22:13:25.166Z,3.92
2023-07-29T22:15:27.854Z,3.78
2023-07-29T22:17:31.482Z,2.97
2023-07-29T22:19:33.885Z,3.42
2023-07-29T22:21:36.689Z,3.20
2023-07-29T22:23:49.814Z,3.88
2023-07-29T22:26:02.621Z,4.13
2023-07-29T22:28:05.038Z,4.53
2023-07-29T22:30:08.512Z,4.90
2023-07-29T22:32:11.477Z,4.72
2023-07-29T22:34:14.513Z,3.95
2023-07-29T22:36:17.296Z,6.13
2023-07-29T22:38:19.913Z,5.43
2023-07-29T22:40:22.156Z,4.40
2023-07-29T22:42:24.685Z,4.35
2023-07-29T22:44:27.537Z,3.92
2023-07-29T22:46:30.058Z,2.88
2023-07-29T22:48:32.381Z,3.97
2023-07-29T22:50:35.826Z,3.08
2023-07-29T22:52:38.134Z,3.92
2023-07-29T22:54:40.625Z,5.53
2023-07-29T22:56:42.725Z,5.20
2023-07-29T22:58:45.741Z,3.47
2023-07-29T23:00:53.265Z,3.00
2023-07-29T23:02:56.694Z,3.15
2023-07-29T23:04:59.102Z,4.68
2023-07-29T23:07:02.140Z,3.30
2023-07-29T23:09:05.142Z,3.78
2023-07-29T23:11:07.677Z,3.85
2023-07-29T23:13:10.627Z,6.05
2023-07-29T23:15:13.767Z,3.33
2023-07-29T23:17:15.994Z,5.10
2023-07-29T23:19:19.190Z,3.83
2023-07-29T23:21:21.951Z,4.80
2023-07-29T23:23:25.078Z,4.50
2023-07-29T23:25:27.951Z,3.38
2023-07-29T23:27:31.074Z,3.08
2023-07-29T23:29:33.318Z,3.15
2023-07-29T23:31:36.204Z,4.25
2023-07-29T23:33:38.985Z,3.42
2023-07-29T23:35:41.419Z,4.40
2023-07-29T23:37:43.583Z,3.70
2023-07-29T23:39:46.143Z,4.07
2023-07-29T23:41:48.383Z,3.20
2023-07-29T23:43:50.843Z,5.45
2023-07-29T23:45:53.179Z,3.47
2023-07-29T23:47:55.877Z,4.20
2023-07-29T23:49:57.971Z,3.78
2023-07-29T23:52:00.432Z,2.97
2023-07-29T23:54:02.605Z,4.57
2023-07-29T23:56:06.528Z,5.35
2023-07-29T23:58:08.638Z,5.18
